Time;durP1;ratioP1;P1;durP2;ratioP2;P2;SDS_P1;SDS_P2;PMS_P1;PMS_P2;Temp;Humidity;BMP_temperature;BMP_pressure;BME280_temperature;BME280_humidity;BME280_pressure;Samples;Min_cycle;Max_cycle;Signal;HPM_P1;HPM_P2
2023/05/20 11:01:39;;;;;;;5.47;4.70;;;25.20;88.30;;;;;;5579882;23;20276;-79
2023/05/20 11:04:08;;;;;;;4.50;4.10;;;25.10;88.30;;;;;;4972268;28;20211;-76
2023/05/20 11:06:36;;;;;;;5.00;4.47;;;25.60;87.90;;;;;;4975970;28;20218;-78
2023/05/20 11:09:06;;;;;;;6.07;4.67;;;25.80;86.80;;;;;;4977088;28;20215;-78
2023/05/20 11:11:37;;;;;;;6.60;5.20;;;25.70;85.70;;;;;;4977313;28;20211;-79
2023/05/20 11:14:05;;;;;;;5.37;4.50;;;25.50;86.00;;;;;;4976335;28;20684;-80
2023/05/20 11:16:33;;;;;;;5.82;5.00;;;25.80;89.50;;;;;;4974652;28;20355;-77
2023/05/20 11:19:03;;;;;;;8.33;4.90;;;25.90;86.90;;;;;;4960406;28;20636;-76
2023/05/20 11:21:31;;;;;;;6.90;5.37;;;26.10;88.60;;;;;;4976593;28;20219;-78
2023/05/20 11:23:59;;;;;;;6.22;5.28;;;26.00;84.70;;;;;;4977025;28;20211;-77
2023/05/20 11:26:30;;;;;;;6.47;4.78;;;25.80;86.00;;;;;;4972422;28;20204;-79
2023/05/20 11:28:58;;;;;;;5.87;5.20;;;25.70;86.40;;;;;;4957774;29;20212;-80
2023/05/20 11:31:28;;;;;;;5.90;4.60;;;25.50;86.70;;;;;;4957488;29;20211;-79
2023/05/20 11:33:56;;;;;;;6.67;4.90;;;25.20;88.60;;;;;;4957136;29;20220;-80
2023/05/20 11:36:27;;;;;;;5.67;4.83;;;25.60;87.70;;;;;;4957187;28;20227;-80
2023/05/20 11:38:57;;;;;;;5.93;4.83;;;25.60;84.30;;;;;;4957978;29;20232;-79
2023/05/20 11:41:27;;;;;;;6.60;5.00;;;25.50;82.30;;;;;;4958767;29;20259;-78
2023/05/20 11:43:57;;;;;;;6.80;5.17;;;24.90;85.10;;;;;;4957951;28;20207;-77
2023/05/20 11:46:26;;;;;;;7.47;4.77;;;24.80;82.10;;;;;;4958154;29;20192;-78
2023/05/20 11:48:55;;;;;;;6.63;5.40;;;24.10;83.70;;;;;;4958502;29;20216;-80
2023/05/20 11:51:24;;;;;;;7.03;4.60;;;24.10;84.80;;;;;;4958312;29;20226;-76
2023/05/20 11:54:00;;;;;;;6.27;5.13;;;24.30;89.50;;;;;;4956177;28;20262;-76
2023/05/20 11:56:29;;;;;;;7.20;5.23;;;24.20;85.10;;;;;;4974432;28;20222;-79
2023/05/20 11:58:59;;;;;;;9.40;5.90;;;23.80;86.50;;;;;;4977390;28;20246;-80
2023/05/20 12:01:29;;;;;;;6.67;5.40;;;24.00;85.40;;;;;;4968455;28;20322;-76
2023/05/20 12:03:57;;;;;;;6.53;5.87;;;23.80;85.90;;;;;;4956433;29;20294;-76
2023/05/20 12:06:26;;;;;;;7.90;5.77;;;23.80;85.80;;;;;;4956822;29;20259;-78
2023/05/20 12:08:55;;;;;;;5.83;5.30;;;24.10;86.30;;;;;;4956968;29;20204;-76
2023/05/20 12:11:23;;;;;;;6.83;5.40;;;23.90;83.50;;;;;;4957693;28;20270;-78
2023/05/20 12:13:52;;;;;;;8.17;5.90;;;23.30;84.40;;;;;;4957681;29;20215;-78
2023/05/20 12:16:20;;;;;;;6.83;5.57;;;23.20;85.50;;;;;;4958302;28;20235;-78
2023/05/20 12:18:48;;;;;;;8.10;5.90;;;23.50;86.40;;;;;;4957694;28;20211;-80
2023/05/20 12:21:17;;;;;;;8.10;5.40;;;23.60;89.60;;;;;;4957701;29;20215;-79
2023/05/20 12:23:45;;;;;;;7.33;5.57;;;23.90;87.60;;;;;;4956616;29;20239;-77
2023/05/20 12:26:14;;;;;;;8.87;6.10;;;24.70;86.50;;;;;;4956677;29;20211;-79
2023/05/20 12:28:43;;;;;;;6.80;5.53;;;24.90;82.00;;;;;;4959057;28;20234;-79
2023/05/20 12:31:12;;;;;;;7.87;5.50;;;25.00;83.90;;;;;;4956950;29;20274;-76
2023/05/20 12:33:40;;;;;;;6.50;4.90;;;25.20;83.00;;;;;;4957319;29;20267;-76
2023/05/20 12:36:08;;;;;;;6.63;5.43;;;25.70;82.30;;;;;;4958209;28;20278;-78
2023/05/20 12:38:37;;;;;;;5.90;5.17;;;25.00;80.00;;;;;;4957396;29;20246;-77
2023/05/20 12:41:05;;;;;;;5.90;5.20;;;25.00;79.60;;;;;;4957091;29;20686;-77
2023/05/20 12:43:35;;;;;;;7.27;5.87;;;25.00;83.00;;;;;;4955618;28;20239;-77
2023/05/20 12:46:04;;;;;;;7.87;5.80;;;25.00;80.60;;;;;;4956932;29;20231;-78
2023/05/20 12:48:33;;;;;;;9.27;5.80;;;24.20;82.10;;;;;;4955675;28;20626;-79
2023/05/20 12:51:01;;;;;;;7.50;5.57;;;24.10;83.00;;;;;;4956005;29;20261;-76
2023/05/20 12:53:29;;;;;;;9.03;6.30;;;23.90;84.80;;;;;;4960076;28;20214;-80
2023/05/20 12:55:57;;;;;;;6.23;5.60;;;23.40;82.30;;;;;;4974830;28;20227;-79
2023/05/20 12:58:25;;;;;;;6.50;5.63;;;23.30;83.60;;;;;;4975943;28;20294;-77
2023/05/20 13:00:54;;;;;;;6.57;5.73;;;23.00;85.10;;;;;;4975061;28;20688;-78
2023/05/20 13:03:23;;;;;;;6.27;5.67;;;22.70;87.20;;;;;;4975066;28;20249;-77
2023/05/20 13:05:52;;;;;;;10.50;6.20;;;22.70;88.90;;;;;;4959396;28;20223;-79
2023/05/20 13:08:20;;;;;;;10.27;5.77;;;22.90;88.20;;;;;;4955561;29;20208;-79
2023/05/20 13:10:48;;;;;;;8.97;6.10;;;23.10;88.90;;;;;;4955477;29;20684;-78
2023/05/20 13:13:20;;;;;;;6.83;5.73;;;23.20;87.30;;;;;;4955125;29;20211;-80
2023/05/20 13:15:49;;;;;;;7.03;5.83;;;23.00;86.70;;;;;;4956316;28;20242;-77
2023/05/20 13:18:18;;;;;;;9.60;6.03;;;23.20;89.10;;;;;;4955910;29;20215;-79
2023/05/20 13:20:47;;;;;;;7.40;6.10;;;23.30;88.90;;;;;;4956377;29;20217;-77
2023/05/20 13:23:15;;;;;;;7.10;6.03;;;23.30;87.50;;;;;;4956717;28;20222;-75
2023/05/20 13:25:44;;;;;;;8.23;6.30;;;23.20;88.90;;;;;;4956952;29;20287;-76
2023/05/20 13:28:15;;;;;;;8.80;6.60;;;23.20;88.00;;;;;;4956508;28;20219;-78
2023/05/20 13:30:43;;;;;;;7.07;6.00;;;23.00;88.20;;;;;;4956280;29;20275;-76
2023/05/20 13:33:11;;;;;;;7.30;6.50;;;22.90;88.80;;;;;;4955656;28;20249;-79
2023/05/20 13:35:41;;;;;;;9.27;6.43;;;22.80;89.70;;;;;;4956070;29;20219;-76
2023/05/20 13:38:10;;;;;;;7.63;5.93;;;22.90;90.00;;;;;;4955568;29;20644;-76
2023/05/20 13:40:38;;;;;;;9.60;6.00;;;23.00;87.90;;;;;;4955695;28;20363;-78
2023/05/20 13:43:06;;;;;;;7.77;5.80;;;23.00;87.80;;;;;;4954284;29;20672;-76
2023/05/20 13:45:34;;;;;;;6.57;5.60;;;23.10;88.90;;;;;;4955827;29;20673;-78
2023/05/20 13:48:02;;;;;;;8.20;5.63;;;23.30;88.90;;;;;;4955442;29;20255;-78
2023/05/20 13:50:30;;;;;;;8.97;6.07;;;23.20;89.50;;;;;;4955760;29;20215;-77
2023/05/20 13:53:00;;;;;;;8.40;5.77;;;23.30;90.00;;;;;;4965610;28;20215;-79
2023/05/20 13:55:28;;;;;;;8.20;6.13;;;23.50;90.10;;;;;;4973891;28;20257;-78
2023/05/20 13:57:56;;;;;;;8.33;5.80;;;23.50;90.50;;;;;;4973203;28;20282;-76
2023/05/20 14:00:24;;;;;;;8.00;5.83;;;23.80;90.30;;;;;;4954413;28;20215;-77
2023/05/20 14:02:53;;;;;;;7.30;6.23;;;24.00;89.40;;;;;;4953956;29;20256;-77
2023/05/20 14:05:21;;;;;;;6.73;5.83;;;24.10;88.90;;;;;;4954555;29;20207;-77
2023/05/20 14:07:50;;;;;;;9.33;6.27;;;24.00;89.30;;;;;;4954037;28;20646;-77
2023/05/20 14:10:19;;;;;;;8.67;5.97;;;23.80;89.30;;;;;;4954583;29;20235;-77
2023/05/20 14:12:47;;;;;;;6.90;6.00;;;23.70;88.90;;;;;;4954734;29;20263;-77
2023/05/20 14:15:16;;;;;;;8.43;6.30;;;23.70;88.10;;;;;;4954726;29;20262;-78
2023/05/20 14:17:44;;;;;;;7.63;6.33;;;23.70;90.00;;;;;;4953831;28;20252;-76
2023/05/20 14:20:12;;;;;;;10.37;6.47;;;23.40;90.70;;;;;;4954009;29;20215;-78
2023/05/20 14:22:40;;;;;;;7.50;6.47;;;23.40;90.10;;;;;;4954256;29;20622;-77
2023/05/20 14:25:10;;;;;;;7.70;6.00;;;23.10;90.70;;;;;;4954040;29;20298;-78
2023/05/20 14:27:40;;;;;;;6.97;5.90;;;23.10;91.00;;;;;;4954099;29;20246;-77
2023/05/20 14:30:10;;;;;;;9.60;6.40;;;23.10;91.80;;;;;;4955253;29;20196;-79
2023/05/20 14:32:38;;;;;;;7.23;6.17;;;23.00;91.30;;;;;;4953732;29;20212;-78
2023/05/20 14:35:07;;;;;;;7.50;6.07;;;23.10;92.60;;;;;;4953940;28;20364;-77
2023/05/20 14:37:35;;;;;;;7.73;6.27;;;23.10;90.90;;;;;;4954243;29;20693;-77
2023/05/20 14:40:06;;;;;;;9.73;6.23;;;23.10;92.00;;;;;;4954613;28;20286;-77
2023/05/20 14:42:34;;;;;;;7.33;6.37;;;23.10;93.20;;;;;;4958132;29;20278;-76
2023/05/20 14:45:04;;;;;;;9.10;6.13;;;23.00;92.00;;;;;;4957501;28;20247;-77
2023/05/20 14:47:33;;;;;;;11.73;6.50;;;23.10;92.00;;;;;;4957754;29;20266;-77
2023/05/20 14:50:01;;;;;;;7.77;6.57;;;23.10;92.00;;;;;;4958783;29;20238;-78
2023/05/20 14:52:29;;;;;;;8.63;6.20;;;23.10;91.50;;;;;;4971609;28;20229;-78
2023/05/20 14:54:57;;;;;;;8.33;6.00;;;22.90;91.00;;;;;;4959107;29;20215;-77
2023/05/20 14:57:25;;;;;;;8.10;6.00;;;22.70;90.60;;;;;;4959575;29;20736;-80
2023/05/20 14:59:53;;;;;;;9.17;6.50;;;22.60;91.50;;;;;;4964145;28;20211;-76
2023/05/20 15:02:23;;;;;;;9.47;6.27;;;22.60;90.60;;;;;;4996640;28;20254;-78
2023/05/20 15:04:51;;;;;;;9.30;5.90;;;22.60;90.00;;;;;;4997794;28;20217;-78
2023/05/20 15:07:19;;;;;;;6.20;5.60;;;22.70;91.20;;;;;;4997964;28;20245;-76
2023/05/20 15:09:48;;;;;;;8.80;6.30;;;22.70;90.50;;;;;;4959818;28;20254;-78
2023/05/20 15:12:16;;;;;;;10.47;6.50;;;22.70;90.10;;;;;;4957617;29;20211;-77
2023/05/20 15:14:44;;;;;;;6.47;5.70;;;22.70;90.40;;;;;;4958482;29;20219;-78
2023/05/20 15:17:13;;;;;;;8.80;6.40;;;22.50;90.00;;;;;;4958694;28;20258;-77
2023/05/20 15:19:42;;;;;;;7.13;6.17;;;22.60;90.20;;;;;;4957709;29;20239;-78
2023/05/20 15:22:11;;;;;;;9.93;6.27;;;22.70;90.00;;;;;;4956979;29;20212;-76
2023/05/20 15:24:39;;;;;;;8.17;5.87;;;22.60;90.30;;;;;;4957412;29;20640;-77
2023/05/20 15:27:07;;;;;;;9.53;5.70;;;22.70;90.30;;;;;;4957362;29;20223;-78
2023/05/20 15:29:35;;;;;;;8.90;6.60;;;22.90;91.20;;;;;;4957221;29;20215;-79
2023/05/20 15:32:06;;;;;;;7.40;5.73;;;22.80;91.40;;;;;;4957174;29;20211;-78
2023/05/20 15:34:34;;;;;;;7.17;5.83;;;22.70;91.00;;;;;;4956797;28;20215;-80
2023/05/20 15:37:04;;;;;;;8.30;6.17;;;22.70;91.30;;;;;;4956912;29;20212;-78
2023/05/20 15:39:32;;;;;;;9.43;6.27;;;22.70;91.80;;;;;;4957736;29;20211;-79
2023/05/20 15:42:01;;;;;;;11.17;6.33;;;22.60;91.80;;;;;;4956608;29;20216;-80
2023/05/20 15:44:29;;;;;;;8.70;6.23;;;22.40;92.50;;;;;;4973805;28;20731;-78
2023/05/20 15:46:57;;;;;;;8.17;6.10;;;22.30;92.10;;;;;;4976079;28;20665;-77
2023/05/20 15:49:25;;;;;;;12.43;6.40;;;22.30;92.20;;;;;;4976146;28;20203;-78
2023/05/20 15:51:53;;;;;;;8.27;6.17;;;22.20;92.40;;;;;;4974347;28;20576;-79
2023/05/20 15:54:32;;;;;;;8.80;6.57;;;22.10;92.50;;;;;;4956955;29;20287;-77
2023/05/20 15:57:01;;;;;;;12.63;6.47;;;21.90;92.90;;;;;;4956756;29;20212;-77
2023/05/20 15:59:29;;;;;;;7.67;6.17;;;21.90;93.20;;;;;;4956410;29;20238;-77
2023/05/20 16:02:00;;;;;;;10.63;6.43;;;21.90;93.50;;;;;;4957036;28;20240;-76
2023/05/20 16:04:28;;;;;;;8.83;6.63;;;21.80;93.60;;;;;;4956848;29;20212;-76
2023/05/20 16:06:56;;;;;;;8.90;6.57;;;21.60;93.90;;;;;;4957092;29;20215;-75
2023/05/20 16:09:24;;;;;;;9.27;6.50;;;21.50;94.50;;;;;;4956099;28;20212;-78
2023/05/20 16:11:54;;;;;;;8.63;6.50;;;21.50;96.20;;;;;;4955863;29;20211;-79
2023/05/20 16:14:23;;;;;;;8.57;6.57;;;21.50;95.90;;;;;;4956462;29;20485;-77
2023/05/20 16:16:51;;;;;;;7.57;6.50;;;21.40;95.70;;;;;;4956451;29;20709;-79
2023/05/20 16:19:19;;;;;;;8.97;6.83;;;21.30;96.20;;;;;;4955997;28;20231;-80
2023/05/20 16:21:47;;;;;;;10.37;6.80;;;21.30;96.90;;;;;;4956613;28;20211;-79
2023/05/20 16:24:16;;;;;;;8.40;6.73;;;21.20;97.00;;;;;;4956137;29;20216;-78
2023/05/20 16:26:44;;;;;;;10.33;7.63;;;21.20;97.50;;;;;;4956546;28;20208;-79
2023/05/20 16:29:13;;;;;;;7.93;7.00;;;21.10;97.70;;;;;;4957705;29;20345;-77
2023/05/20 16:31:45;;;;;;;7.77;6.97;;;21.10;98.00;;;;;;4958220;29;20226;-77
2023/05/20 16:34:14;;;;;;;8.30;7.20;;;21.10;98.10;;;;;;4956607;29;20207;-77
2023/05/20 16:36:43;;;;;;;10.23;7.47;;;21.00;98.40;;;;;;4963943;28;20203;-76
2023/05/20 16:39:12;;;;;;;8.10;7.03;;;20.90;98.40;;;;;;4976334;28;20226;-77
2023/05/20 16:41:40;;;;;;;8.80;6.90;;;20.80;98.40;;;;;;4975722;28;20211;-77
2023/05/20 16:44:09;;;;;;;8.33;7.50;;;20.80;98.90;;;;;;4970158;28;20227;-77
2023/05/20 16:46:38;;;;;;;7.80;6.93;;;20.80;99.10;;;;;;4955811;29;20235;-79
2023/05/20 16:49:07;;;;;;;8.77;7.53;;;20.70;99.60;;;;;;4970029;28;20225;-76
2023/05/20 16:51:35;;;;;;;9.27;7.17;;;20.70;99.90;;;;;;4973115;28;20634;-77
2023/05/20 16:54:03;;;;;;;10.80;7.30;;;20.60;99.90;;;;;;4974527;28;20266;-77
2023/05/20 16:56:32;;;;;;;11.33;7.43;;;20.60;99.90;;;;;;4974855;28;20230;-80
2023/05/20 16:59:00;;;;;;;11.47;7.60;;;20.60;99.90;;;;;;4975762;28;20262;-79
2023/05/20 17:01:28;;;;;;;9.30;7.57;;;20.50;99.90;;;;;;4959529;28;20678;-77
2023/05/20 17:03:58;;;;;;;10.17;7.70;;;20.50;99.90;;;;;;4966091;28;20211;-76
2023/05/20 17:06:26;;;;;;;10.07;7.63;;;20.40;99.90;;;;;;4975401;28;20215;-77
2023/05/20 17:08:55;;;;;;;11.63;7.73;;;20.40;99.90;;;;;;4974869;28;20211;-78
2023/05/20 17:11:23;;;;;;;13.53;7.67;;;20.30;99.90;;;;;;4965047;28;20224;-78
2023/05/20 17:13:51;;;;;;;9.53;7.83;;;20.30;99.90;;;;;;4955466;29;20307;-77
2023/05/20 17:16:20;;;;;;;8.87;7.90;;;20.20;99.90;;;;;;4955308;29;20665;-77
2023/05/20 17:18:48;;;;;;;9.30;7.80;;;20.30;99.90;;;;;;4955222;29;20259;-78
2023/05/20 17:21:19;;;;;;;10.50;7.70;;;20.20;99.90;;;;;;4955554;28;20622;-80
2023/05/20 17:23:47;;;;;;;9.53;7.53;;;20.20;99.90;;;;;;4956376;29;20215;-78
2023/05/20 17:26:16;;;;;;;9.43;8.20;;;20.20;99.90;;;;;;4956324;29;20234;-78
2023/05/20 17:28:44;;;;;;;9.50;7.70;;;20.10;99.90;;;;;;4963556;28;20223;-78
2023/05/20 17:31:12;;;;;;;9.17;8.27;;;20.10;99.90;;;;;;4964974;29;20740;-78
2023/05/20 17:33:40;;;;;;;11.90;8.60;;;20.10;99.90;;;;;;4964726;29;20218;-77
2023/05/20 17:36:09;;;;;;;10.50;8.47;;;20.00;99.90;;;;;;4963678;29;20211;-77
2023/05/20 17:38:38;;;;;;;12.70;8.53;;;20.00;99.90;;;;;;4956873;28;20666;-78
2023/05/20 17:41:07;;;;;;;10.93;8.03;;;19.90;99.90;;;;;;4955517;29;20215;-76
2023/05/20 17:43:35;;;;;;;9.20;8.20;;;19.80;99.90;;;;;;4955015;29;20212;-78
2023/05/20 17:46:03;;;;;;;9.73;8.73;;;19.80;99.90;;;;;;4955633;28;20708;-75
2023/05/20 17:48:32;;;;;;;10.10;7.80;;;19.70;99.90;;;;;;4974098;28;20238;-78
2023/05/20 17:51:00;;;;;;;9.10;8.20;;;19.70;99.90;;;;;;4974223;28;20218;-78
2023/05/20 17:53:28;;;;;;;9.53;8.40;;;19.60;99.90;;;;;;4973693;28;20218;-78
2023/05/20 17:55:58;;;;;;;11.03;8.27;;;19.60;99.90;;;;;;4956574;28;20634;-79
2023/05/20 17:58:26;;;;;;;9.57;8.37;;;19.50;99.90;;;;;;4954697;29;20223;-76
2023/05/20 18:00:54;;;;;;;10.37;8.53;;;19.50;99.90;;;;;;4954227;29;20250;-79
2023/05/20 18:03:22;;;;;;;11.27;8.53;;;19.40;99.90;;;;;;4954270;28;20270;-79
2023/05/20 18:05:51;;;;;;;13.47;8.80;;;19.40;99.90;;;;;;4954500;29;20219;-79
2023/05/20 18:08:24;;;;;;;10.33;8.70;;;19.30;99.90;;;;;;4955141;29;20253;-78
2023/05/20 18:10:52;;;;;;;10.33;8.77;;;19.20;99.90;;;;;;4958949;28;20546;-77
2023/05/20 18:13:23;;;;;;;10.43;9.03;;;19.20;99.90;;;;;;4959781;29;20219;-80
2023/05/20 18:15:51;;;;;;;14.37;9.57;;;19.10;99.90;;;;;;4955467;28;20258;-76
2023/05/20 18:18:19;;;;;;;10.53;9.43;;;19.00;99.90;;;;;;4954918;29;20215;-78
2023/05/20 18:20:47;;;;;;;11.00;9.77;;;18.90;99.90;;;;;;4954052;28;20231;-78
2023/05/20 18:23:16;;;;;;;12.23;9.90;;;18.80;99.90;;;;;;4954058;29;20222;-78
2023/05/20 18:25:44;;;;;;;12.87;10.07;;;18.80;99.90;;;;;;4954271;29;20216;-77
2023/05/20 18:28:13;;;;;;;12.73;10.40;;;18.70;99.90;;;;;;4954313;29;20286;-78
2023/05/20 18:30:42;;;;;;;15.57;9.90;;;18.60;99.90;;;;;;4954277;29;20869;-77
2023/05/20 18:33:10;;;;;;;11.03;9.93;;;18.50;99.90;;;;;;4953728;29;20297;-78
2023/05/20 18:35:39;;;;;;;12.77;10.40;;;18.50;99.90;;;;;;4954490;29;20222;-78
2023/05/20 18:38:07;;;;;;;11.83;10.63;;;18.40;99.90;;;;;;4954099;29;20250;-80
2023/05/20 18:40:35;;;;;;;13.30;10.87;;;18.30;99.90;;;;;;4953977;28;20231;-78
2023/05/20 18:43:03;;;;;;;13.37;10.90;;;18.30;99.90;;;;;;4953920;29;20258;-79
2023/05/20 18:45:32;;;;;;;15.23;11.00;;;18.30;99.90;;;;;;4962412;28;20728;-77
2023/05/20 18:48:01;;;;;;;15.30;10.90;;;18.20;99.90;;;;;;4967598;28;20628;-79
2023/05/20 18:50:30;;;;;;;12.73;11.43;;;18.10;99.90;;;;;;4954148;29;20670;-77
2023/05/20 18:52:58;;;;;;;16.83;11.80;;;18.10;99.90;;;;;;4953815;29;20207;-78
2023/05/20 18:55:27;;;;;;;12.67;11.40;;;18.00;99.90;;;;;;4953942;29;20214;-78
2023/05/20 18:57:55;;;;;;;14.90;11.53;;;17.90;99.90;;;;;;4953890;29;20216;-78
2023/05/20 19:00:23;;;;;;;13.20;11.43;;;17.90;99.90;;;;;;4953631;29;20286;-78
2023/05/20 19:02:51;;;;;;;12.90;11.60;;;17.80;99.90;;;;;;4954534;29;20260;-77
2023/05/20 19:05:21;;;;;;;13.80;11.80;;;17.80;99.90;;;;;;4953433;28;20243;-78
2023/05/20 19:07:50;;;;;;;13.07;11.43;;;17.70;99.90;;;;;;4953785;29;20212;-78
2023/05/20 19:10:18;;;;;;;13.90;11.23;;;17.70;99.90;;;;;;4953681;29;20610;-78
2023/05/20 19:12:47;;;;;;;12.87;11.47;;;17.60;99.90;;;;;;4953673;29;20630;-78
2023/05/20 19:15:17;;;;;;;12.40;11.07;;;17.60;99.90;;;;;;4953422;28;20208;-77
2023/05/20 19:17:45;;;;;;;11.80;10.60;;;17.60;99.90;;;;;;4953789;29;20621;-77
2023/05/20 19:20:14;;;;;;;13.23;11.43;;;17.50;99.90;;;;;;4953474;29;20239;-79
2023/05/20 19:22:43;;;;;;;14.27;10.57;;;17.50;99.90;;;;;;4953253;28;20212;-77
2023/05/20 19:25:11;;;;;;;13.13;10.83;;;17.40;99.90;;;;;;4954124;29;20616;-79
2023/05/20 19:27:40;;;;;;;12.10;10.80;;;17.40;99.90;;;;;;4956365;29;20661;-77
2023/05/20 19:30:08;;;;;;;11.50;10.30;;;17.40;99.90;;;;;;4957183;29;20208;-76
2023/05/20 19:32:38;;;;;;;13.20;10.90;;;17.40;99.90;;;;;;4956151;28;20234;-76
2023/05/20 19:35:07;;;;;;;11.10;10.00;;;17.30;99.90;;;;;;4956746;29;20666;-76
2023/05/20 19:37:35;;;;;;;11.77;10.57;;;17.30;99.90;;;;;;4957082;29;20255;-77
2023/05/20 19:40:06;;;;;;;11.90;10.70;;;17.30;99.90;;;;;;4956347;28;20304;-77
2023/05/20 19:42:35;;;;;;;12.50;10.67;;;17.20;99.90;;;;;;4956361;29;20255;-77
2023/05/20 19:45:03;;;;;;;12.20;11.00;;;17.20;99.90;;;;;;4976523;28;20215;-78
2023/05/20 19:47:31;;;;;;;11.10;10.00;;;17.20;99.90;;;;;;4975845;28;20266;-77
2023/05/20 19:50:00;;;;;;;11.93;10.73;;;17.20;99.90;;;;;;4956531;29;20229;-79
2023/05/20 19:52:28;;;;;;;13.67;10.90;;;17.20;99.90;;;;;;4955949;29;20327;-78
2023/05/20 19:54:57;;;;;;;12.17;10.20;;;17.10;99.90;;;;;;4956060;29;20669;-79
2023/05/20 19:57:26;;;;;;;12.47;11.10;;;17.00;99.90;;;;;;4956619;28;20238;-76
2023/05/20 19:59:55;;;;;;;13.67;11.07;;;17.00;99.90;;;;;;4956172;28;20748;-77
2023/05/20 20:02:23;;;;;;;13.63;11.33;;;17.00;99.90;;;;;;4955911;29;20271;-78
2023/05/20 20:04:51;;;;;;;12.37;10.70;;;17.00;99.90;;;;;;4956283;29;20216;-77
2023/05/20 20:07:19;;;;;;;14.03;11.20;;;17.00;99.90;;;;;;4956084;28;20215;-78
2023/05/20 20:09:50;;;;;;;12.20;11.00;;;17.00;99.90;;;;;;4955786;29;20208;-79
2023/05/20 20:12:18;;;;;;;13.27;11.60;;;17.00;99.90;;;;;;4956143;28;20277;-76
2023/05/20 20:14:48;;;;;;;14.33;12.03;;;16.90;99.90;;;;;;4955903;29;20203;-79
2023/05/20 20:17:16;;;;;;;13.40;12.00;;;16.90;99.90;;;;;;4955739;29;20271;-78
2023/05/20 20:19:46;;;;;;;13.37;11.80;;;16.80;99.90;;;;;;4955890;29;20215;-76
2023/05/20 20:22:15;;;;;;;15.40;12.33;;;16.80;99.90;;;;;;4955740;29;20222;-75
2023/05/20 20:24:44;;;;;;;12.73;11.43;;;16.80;99.90;;;;;;4955725;28;20278;-78
2023/05/20 20:27:12;;;;;;;14.13;12.63;;;16.70;99.90;;;;;;4955660;29;20277;-77
2023/05/20 20:29:40;;;;;;;14.57;12.13;;;16.70;99.90;;;;;;4955549;29;20217;-77
2023/05/20 20:32:10;;;;;;;13.57;12.27;;;16.60;99.90;;;;;;4955450;29;20250;-78
2023/05/20 20:34:38;;;;;;;15.20;11.87;;;16.60;99.90;;;;;;4955479;28;20211;-77
2023/05/20 20:37:07;;;;;;;14.03;12.57;;;16.50;99.90;;;;;;4955089;28;20255;-79
2023/05/20 20:39:36;;;;;;;13.60;12.10;;;16.50;99.90;;;;;;4955149;29;20207;-78
2023/05/20 20:42:04;;;;;;;14.93;12.23;;;16.50;99.90;;;;;;4957824;28;20211;-78
2023/05/20 20:44:32;;;;;;;13.33;11.20;;;16.40;99.90;;;;;;4962730;28;20295;-78
2023/05/20 20:47:02;;;;;;;13.53;12.13;;;16.40;99.90;;;;;;4955865;28;20219;-79
2023/05/20 20:49:33;;;;;;;13.60;12.20;;;16.40;99.90;;;;;;4975003;28;20459;-77
2023/05/20 20:52:02;;;;;;;13.67;12.20;;;16.40;99.90;;;;;;4973628;28;20669;-78
2023/05/20 20:54:31;;;;;;;14.43;12.93;;;16.40;99.90;;;;;;4974484;28;20213;-77
2023/05/20 20:57:01;;;;;;;13.70;12.30;;;16.30;99.90;;;;;;4974787;28;20218;-77
2023/05/20 20:59:30;;;;;;;17.23;12.27;;;16.30;99.90;;;;;;4974439;28;20629;-77
2023/05/20 21:01:59;;;;;;;15.53;12.90;;;16.30;99.90;;;;;;4974028;28;20245;-78
2023/05/20 21:04:27;;;;;;;13.00;11.70;;;16.30;99.90;;;;;;4974708;28;20210;-77
2023/05/20 21:07:00;;;;;;;15.57;12.30;;;16.20;99.90;;;;;;4974665;28;20241;-77
2023/05/20 21:09:29;;;;;;;15.17;12.33;;;16.20;99.90;;;;;;4963509;28;20215;-77
2023/05/20 21:11:59;;;;;;;14.53;12.57;;;16.20;99.90;;;;;;4954770;29;20702;-80
2023/05/20 21:14:27;;;;;;;14.67;13.03;;;16.10;99.90;;;;;;4955091;29;20231;-78
2023/05/20 21:16:55;;;;;;;13.63;12.23;;;16.00;99.90;;;;;;4955516;29;20211;-78
2023/05/20 21:19:24;;;;;;;14.57;13.03;;;16.00;99.90;;;;;;4954812;29;20262;-78
2023/05/20 21:21:52;;;;;;;15.50;12.90;;;16.00;99.90;;;;;;4954211;29;20231;-79
2023/05/20 21:24:22;;;;;;;14.30;12.87;;;16.00;99.90;;;;;;4954881;29;20230;-77
2023/05/20 21:26:50;;;;;;;13.97;12.43;;;16.00;99.90;;;;;;4954796;28;20215;-77
2023/05/20 21:29:18;;;;;;;15.53;12.73;;;16.00;99.90;;;;;;4954921;29;20299;-76
2023/05/20 21:31:46;;;;;;;13.37;12.17;;;16.00;99.90;;;;;;4954767;29;20239;-79
2023/05/20 21:34:14;;;;;;;14.87;12.63;;;16.00;99.90;;;;;;4954378;28;20300;-79
2023/05/20 21:36:43;;;;;;;12.93;11.53;;;15.90;99.90;;;;;;4954525;29;20637;-78
2023/05/20 21:39:11;;;;;;;13.03;11.67;;;15.90;99.90;;;;;;4954608;29;20219;-78
2023/05/20 21:41:40;;;;;;;17.17;12.40;;;15.90;99.90;;;;;;4965297;28;20316;-77
2023/05/20 21:44:09;;;;;;;13.03;11.83;;;15.90;99.90;;;;;;4957642;28;20215;-80
2023/05/20 21:46:37;;;;;;;13.30;11.83;;;15.90;99.90;;;;;;4954776;29;20212;-80
2023/05/20 21:49:06;;;;;;;12.57;11.30;;;15.90;99.90;;;;;;4954497;28;20738;-80
2023/05/20 21:51:34;;;;;;;12.77;11.47;;;15.80;99.90;;;;;;4954589;28;20214;-78
2023/05/20 21:54:02;;;;;;;12.57;11.37;;;15.80;99.90;;;;;;4954495;29;20279;-76
2023/05/20 21:56:31;;;;;;;12.13;10.93;;;15.80;99.90;;;;;;4954128;29;20215;-77
2023/05/20 21:59:00;;;;;;;12.57;11.33;;;15.80;99.90;;;;;;4954274;28;20250;-77
2023/05/20 22:01:28;;;;;;;12.20;10.97;;;15.70;99.90;;;;;;4953665;29;20776;-79
2023/05/20 22:03:57;;;;;;;13.77;11.23;;;15.70;99.90;;;;;;4954176;29;20220;-78
2023/05/20 22:06:25;;;;;;;13.17;11.47;;;15.70;99.90;;;;;;4954085;29;20251;-77
2023/05/20 22:08:53;;;;;;;12.67;11.37;;;15.70;99.90;;;;;;4954094;28;20219;-79
2023/05/20 22:11:22;;;;;;;12.37;11.03;;;15.60;99.90;;;;;;4954769;29;20266;-78
2023/05/20 22:13:52;;;;;;;12.67;11.37;;;15.60;99.90;;;;;;4953541;29;20222;-79
2023/05/20 22:16:23;;;;;;;12.47;11.17;;;15.60;99.90;;;;;;4956306;28;20226;-80
2023/05/20 22:18:52;;;;;;;12.73;11.30;;;15.50;99.90;;;;;;4957592;29;20214;-77
2023/05/20 22:21:21;;;;;;;12.83;11.33;;;15.50;99.90;;;;;;4956246;29;20242;-79
2023/05/20 22:23:49;;;;;;;12.63;11.00;;;15.50;99.90;;;;;;4954605;29;20220;-79
2023/05/20 22:26:18;;;;;;;12.77;11.57;;;15.50;99.90;;;;;;4956469;28;20215;-79
2023/05/20 22:28:47;;;;;;;12.63;11.33;;;15.40;99.90;;;;;;4955949;29;20232;-78
2023/05/20 22:31:15;;;;;;;12.90;11.70;;;15.40;99.90;;;;;;4955649;29;20208;-80
2023/05/20 22:33:44;;;;;;;13.63;12.00;;;15.30;99.90;;;;;;4953925;28;20211;-77
2023/05/20 22:36:13;;;;;;;11.97;10.67;;;15.30;99.90;;;;;;4954433;29;20211;-79
2023/05/20 22:38:41;;;;;;;13.43;11.23;;;15.20;99.90;;;;;;4953664;29;20222;-77
2023/05/20 22:41:09;;;;;;;14.73;11.73;;;15.20;99.90;;;;;;4971596;28;20227;-78
2023/05/20 22:43:38;;;;;;;14.23;11.90;;;15.20;99.90;;;;;;4953760;28;20274;-79
2023/05/20 22:46:06;;;;;;;12.00;10.80;;;15.20;99.90;;;;;;4955220;29;20211;-79
2023/05/20 22:48:34;;;;;;;13.03;11.70;;;15.10;99.90;;;;;;4957014;29;20290;-78
2023/05/20 22:51:04;;;;;;;12.37;11.10;;;15.10;99.90;;;;;;4956367;28;20208;-79
2023/05/20 22:53:32;;;;;;;12.13;10.87;;;15.00;99.90;;;;;;4956374;29;20709;-76
2023/05/20 22:56:01;;;;;;;13.20;11.60;;;15.00;99.90;;;;;;4958104;29;20219;-77
2023/05/20 22:58:32;;;;;;;13.00;11.57;;;14.90;99.90;;;;;;4955180;29;20220;-79
2023/05/20 23:01:00;;;;;;;12.27;11.00;;;14.90;99.90;;;;;;4954271;28;20255;-79
2023/05/20 23:03:28;;;;;;;12.53;11.23;;;14.90;99.90;;;;;;4957604;29;20278;-79
2023/05/20 23:05:56;;;;;;;13.53;11.17;;;14.90;99.90;;;;;;4957887;29;20275;-79
2023/05/20 23:08:26;;;;;;;15.27;11.70;;;14.90;99.90;;;;;;4957854;28;20243;-75
2023/05/20 23:10:54;;;;;;;12.60;11.23;;;14.90;99.90;;;;;;4957978;29;20207;-78
2023/05/20 23:13:22;;;;;;;12.13;10.87;;;14.80;99.90;;;;;;4957483;29;20207;-77
2023/05/20 23:15:50;;;;;;;14.53;11.77;;;14.80;99.90;;;;;;4957477;29;20657;-76
2023/05/20 23:18:19;;;;;;;13.13;11.20;;;14.80;99.90;;;;;;4957329;28;20438;-79
2023/05/20 23:20:47;;;;;;;12.60;11.20;;;14.80;99.90;;;;;;4957446;29;20215;-78
2023/05/20 23:23:15;;;;;;;11.70;10.50;;;14.70;99.90;;;;;;4957230;29;20235;-77
2023/05/20 23:25:53;;;;;;;12.23;10.93;;;14.70;99.90;;;;;;4957386;29;20196;-78
2023/05/20 23:28:21;;;;;;;12.30;11.00;;;14.70;99.90;;;;;;4957190;28;20219;-81
2023/05/20 23:30:49;;;;;;;13.10;11.07;;;14.60;99.90;;;;;;4957271;29;20215;-79
2023/05/20 23:33:18;;;;;;;12.57;11.20;;;14.60;99.90;;;;;;4957121;29;20305;-79
2023/05/20 23:35:51;;;;;;;12.30;11.00;;;14.60;99.90;;;;;;4957469;29;20236;-78
2023/05/20 23:38:19;;;;;;;12.43;11.13;;;14.50;99.90;;;;;;4963654;28;20230;-78
2023/05/20 23:40:48;;;;;;;11.17;9.97;;;14.60;99.90;;;;;;4976264;28;20207;-78
2023/05/20 23:43:17;;;;;;;12.33;10.77;;;14.50;99.90;;;;;;4975925;28;20231;-77
2023/05/20 23:45:46;;;;;;;11.83;10.43;;;14.50;99.90;;;;;;4976068;28;20234;-78